sensor_id;sensor_type;location;lat;lon;timestamp;P1;durP1;ratioP1;P2;durP2;ratioP2
2854;SDS011;1435;49.472;10.940;2023-03-01T00:02:17;19.23;;;12.97;;
2854;SDS011;1435;49.472;10.940;2023-03-01T00:07:19;17.00;;;12.90;;
2854;SDS011;1435;49.472;10.940;2023-03-01T00:12:22;15.43;;;11.20;;
2854;SDS011;1435;49.472;10.940;2023-03-01T00:17:24;15.83;;;11.67;;
2854;SDS011;1435;49.472;10.940;2023-03-01T00:22:26;16.53;;;11.60;;
2854;SDS011;1435;49.472;10.940;2023-03-01T00:27:29;17.17;;;11.37;;
2854;SDS011;1435;49.472;10.940;2023-03-01T00:32:31;14.37;;;11.97;;
2854;SDS011;1435;49.472;10.940;2023-03-01T00:37:33;15.57;;;12.40;;
2854;SDS011;1435;49.472;10.940;2023-03-01T00:42:36;20.90;;;11.37;;
2854;SDS011;1435;49.472;10.940;2023-03-01T00:47:38;16.03;;;11.30;;
2854;SDS011;1435;49.472;10.940;2023-03-01T00:52:39;16.10;;;13.60;;
2854;SDS011;1435;49.472;10.940;2023-03-01T00:57:42;16.40;;;11.70;;
2854;SDS011;1435;49.472;10.940;2023-03-01T01:02:44;14.93;;;11.77;;
2854;SDS011;1435;49.472;10.940;2023-03-01T01:07:46;16.13;;;12.23;;
2854;SDS011;1435;49.472;10.940;2023-03-01T01:12:50;16.47;;;11.30;;
2854;SDS011;1435;49.472;10.940;2023-03-01T01:17:52;17.30;;;12.03;;
2854;SDS011;1435;49.472;10.940;2023-03-01T01:22:53;13.43;;;10.60;;
2854;SDS011;1435;49.472;10.940;2023-03-01T01:27:57;14.33;;;10.53;;
2854;SDS011;1435;49.472;10.940;2023-03-01T01:32:58;14.33;;;11.73;;
2854;SDS011;1435;49.472;10.940;2023-03-01T01:38:00;16.27;;;11.53;;
2854;SDS011;1435;49.472;10.940;2023-03-01T01:43:04;17.80;;;11.70;;
2854;SDS011;1435;49.472;10.940;2023-03-01T01:48:10;22.70;;;12.43;;
2854;SDS011;1435;49.472;10.940;2023-03-01T01:53:17;14.70;;;10.63;;
2854;SDS011;1435;49.472;10.940;2023-03-01T01:58:22;16.50;;;10.80;;
2854;SDS011;1435;49.472;10.940;2023-03-01T02:03:27;16.87;;;11.17;;
2854;SDS011;1435;49.472;10.940;2023-03-01T02:08:38;14.60;;;11.20;;
2854;SDS011;1435;49.472;10.940;2023-03-01T02:13:43;16.30;;;12.13;;
2854;SDS011;1435;49.472;10.940;2023-03-01T02:18:48;17.20;;;11.93;;
2854;SDS011;1435;49.472;10.940;2023-03-01T02:23:52;13.50;;;10.97;;
2854;SDS011;1435;49.472;10.940;2023-03-01T02:28:56;17.77;;;12.10;;
2854;SDS011;1435;49.472;10.940;2023-03-01T02:33:58;14.77;;;12.67;;
2854;SDS011;1435;49.472;10.940;2023-03-01T02:39:04;13.50;;;10.30;;
2854;SDS011;1435;49.472;10.940;2023-03-01T02:44:15;15.20;;;10.63;;
2854;SDS011;1435;49.472;10.940;2023-03-01T02:49:18;17.40;;;11.50;;
2854;SDS011;1435;49.472;10.940;2023-03-01T02:54:23;14.17;;;11.07;;
2854;SDS011;1435;49.472;10.940;2023-03-01T02:59:31;20.50;;;12.87;;
2854;SDS011;1435;49.472;10.940;2023-03-01T03:04:39;15.87;;;11.80;;
2854;SDS011;1435;49.472;10.940;2023-03-01T03:09:41;15.13;;;10.50;;
2854;SDS011;1435;49.472;10.940;2023-03-01T03:14:44;17.53;;;11.20;;
2854;SDS011;1435;49.472;10.940;2023-03-01T03:19:46;14.50;;;11.57;;
2854;SDS011;1435;49.472;10.940;2023-03-01T03:24:48;15.83;;;12.40;;
2854;SDS011;1435;49.472;10.940;2023-03-01T03:29:51;15.70;;;11.27;;
2854;SDS011;1435;49.472;10.940;2023-03-01T03:34:53;19.47;;;11.97;;
2854;SDS011;1435;49.472;10.940;2023-03-01T03:39:54;20.43;;;12.03;;
2854;SDS011;1435;49.472;10.940;2023-03-01T03:44:57;16.27;;;12.37;;
2854;SDS011;1435;49.472;10.940;2023-03-01T03:49:59;20.43;;;12.60;;
2854;SDS011;1435;49.472;10.940;2023-03-01T03:55:01;20.27;;;12.00;;
2854;SDS011;1435;49.472;10.940;2023-03-01T04:00:05;15.90;;;11.70;;
2854;SDS011;1435;49.472;10.940;2023-03-01T04:05:13;17.00;;;12.60;;
2854;SDS011;1435;49.472;10.940;2023-03-01T04:10:17;15.13;;;11.90;;
2854;SDS011;1435;49.472;10.940;2023-03-01T04:15:21;21.40;;;13.00;;
2854;SDS011;1435;49.472;10.940;2023-03-01T04:20:25;18.90;;;12.60;;
2854;SDS011;1435;49.472;10.940;2023-03-01T04:25:29;16.53;;;11.03;;
2854;SDS011;1435;49.472;10.940;2023-03-01T04:30:36;13.90;;;10.27;;
2854;SDS011;1435;49.472;10.940;2023-03-01T04:35:38;15.87;;;12.03;;
2854;SDS011;1435;49.472;10.940;2023-03-01T04:40:40;15.63;;;11.17;;
2854;SDS011;1435;49.472;10.940;2023-03-01T04:45:44;18.37;;;12.17;;
2854;SDS011;1435;49.472;10.940;2023-03-01T04:50:46;16.07;;;10.80;;
2854;SDS011;1435;49.472;10.940;2023-03-01T04:55:48;16.63;;;12.60;;
2854;SDS011;1435;49.472;10.940;2023-03-01T05:00:51;17.83;;;11.97;;
2854;SDS011;1435;49.472;10.940;2023-03-01T05:05:53;17.17;;;11.57;;
2854;SDS011;1435;49.472;10.940;2023-03-01T05:10:59;18.07;;;12.23;;
2854;SDS011;1435;49.472;10.940;2023-03-01T05:16:03;15.30;;;11.17;;
2854;SDS011;1435;49.472;10.940;2023-03-01T05:21:07;17.57;;;12.20;;
2854;SDS011;1435;49.472;10.940;2023-03-01T05:26:09;15.70;;;10.63;;
2854;SDS011;1435;49.472;10.940;2023-03-01T05:31:14;15.70;;;10.00;;
2854;SDS011;1435;49.472;10.940;2023-03-01T05:36:15;15.77;;;11.60;;
2854;SDS011;1435;49.472;10.940;2023-03-01T05:41:18;15.90;;;11.03;;
2854;SDS011;1435;49.472;10.940;2023-03-01T05:46:21;15.97;;;12.00;;
2854;SDS011;1435;49.472;10.940;2023-03-01T05:51:24;15.47;;;11.50;;
2854;SDS011;1435;49.472;10.940;2023-03-01T05:56:26;20.17;;;12.40;;
2854;SDS011;1435;49.472;10.940;2023-03-01T06:01:29;23.17;;;12.83;;
2854;SDS011;1435;49.472;10.940;2023-03-01T06:06:33;20.23;;;11.97;;
2854;SDS011;1435;49.472;10.940;2023-03-01T06:11:37;15.43;;;10.90;;
2854;SDS011;1435;49.472;10.940;2023-03-01T06:16:40;21.17;;;13.00;;
2854;SDS011;1435;49.472;10.940;2023-03-01T06:21:42;21.40;;;12.53;;
2854;SDS011;1435;49.472;10.940;2023-03-01T06:26:43;16.47;;;12.47;;
2854;SDS011;1435;49.472;10.940;2023-03-01T06:31:46;18.03;;;12.80;;
2854;SDS011;1435;49.472;10.940;2023-03-01T06:36:48;16.83;;;12.43;;
2854;SDS011;1435;49.472;10.940;2023-03-01T06:41:50;19.07;;;13.30;;
2854;SDS011;1435;49.472;10.940;2023-03-01T06:46:53;16.43;;;13.40;;
2854;SDS011;1435;49.472;10.940;2023-03-01T06:51:55;19.10;;;13.60;;
2854;SDS011;1435;49.472;10.940;2023-03-01T06:56:57;20.53;;;13.87;;
2854;SDS011;1435;49.472;10.940;2023-03-01T07:02:00;21.43;;;14.83;;
2854;SDS011;1435;49.472;10.940;2023-03-01T07:07:02;17.70;;;13.67;;
2854;SDS011;1435;49.472;10.940;2023-03-01T07:12:04;21.57;;;13.80;;
2854;SDS011;1435;49.472;10.940;2023-03-01T07:17:07;28.03;;;15.20;;
2854;SDS011;1435;49.472;10.940;2023-03-01T07:22:09;18.83;;;13.83;;
2854;SDS011;1435;49.472;10.940;2023-03-01T07:27:11;20.20;;;13.47;;
2854;SDS011;1435;49.472;10.940;2023-03-01T07:32:14;16.80;;;11.70;;
2854;SDS011;1435;49.472;10.940;2023-03-01T07:37:16;19.80;;;14.30;;
2854;SDS011;1435;49.472;10.940;2023-03-01T07:42:18;21.83;;;14.20;;
2854;SDS011;1435;49.472;10.940;2023-03-01T07:47:21;21.17;;;13.77;;
2854;SDS011;1435;49.472;10.940;2023-03-01T07:52:22;18.80;;;12.77;;
2854;SDS011;1435;49.472;10.940;2023-03-01T07:57:24;19.87;;;13.80;;
2854;SDS011;1435;49.472;10.940;2023-03-01T08:02:27;23.43;;;14.47;;
2854;SDS011;1435;49.472;10.940;2023-03-01T08:07:29;20.00;;;13.80;;
2854;SDS011;1435;49.472;10.940;2023-03-01T08:12:31;23.60;;;14.40;;
2854;SDS011;1435;49.472;10.940;2023-03-01T08:17:34;26.47;;;15.67;;
2854;SDS011;1435;49.472;10.940;2023-03-01T08:22:36;19.77;;;15.03;;
2854;SDS011;1435;49.472;10.940;2023-03-01T08:27:38;21.43;;;15.17;;
2854;SDS011;1435;49.472;10.940;2023-03-01T08:32:41;21.57;;;14.40;;
2854;SDS011;1435;49.472;10.940;2023-03-01T08:37:43;22.23;;;15.90;;
2854;SDS011;1435;49.472;10.940;2023-03-01T08:42:44;17.53;;;13.17;;
2854;SDS011;1435;49.472;10.940;2023-03-01T08:47:47;19.50;;;16.00;;
2854;SDS011;1435;49.472;10.940;2023-03-01T08:52:53;18.43;;;14.87;;
2854;SDS011;1435;49.472;10.940;2023-03-01T08:57:55;22.40;;;15.27;;
2854;SDS011;1435;49.472;10.940;2023-03-01T09:03:00;21.80;;;13.73;;
2854;SDS011;1435;49.472;10.940;2023-03-01T09:08:02;18.13;;;14.07;;
2854;SDS011;1435;49.472;10.940;2023-03-01T09:13:03;21.07;;;14.83;;
2854;SDS011;1435;49.472;10.940;2023-03-01T09:18:06;20.40;;;14.30;;
2854;SDS011;1435;49.472;10.940;2023-03-01T09:23:08;20.17;;;13.03;;
2854;SDS011;1435;49.472;10.940;2023-03-01T09:28:10;18.27;;;13.50;;
2854;SDS011;1435;49.472;10.940;2023-03-01T09:33:13;23.30;;;14.63;;
2854;SDS011;1435;49.472;10.940;2023-03-01T09:38:14;18.73;;;13.30;;
2854;SDS011;1435;49.472;10.940;2023-03-01T09:43:18;21.10;;;13.50;;
2854;SDS011;1435;49.472;10.940;2023-03-01T09:48:26;20.97;;;15.00;;
2854;SDS011;1435;49.472;10.940;2023-03-01T09:53:31;19.53;;;14.40;;
2854;SDS011;1435;49.472;10.940;2023-03-01T09:58:37;22.27;;;15.57;;
2854;SDS011;1435;49.472;10.940;2023-03-01T10:03:58;21.10;;;13.30;;
2854;SDS011;1435;49.472;10.940;2023-03-01T10:09:07;20.83;;;14.10;;
2854;SDS011;1435;49.472;10.940;2023-03-01T10:14:15;15.80;;;12.97;;
2854;SDS011;1435;49.472;10.940;2023-03-01T10:19:29;19.80;;;13.77;;
2854;SDS011;1435;49.472;10.940;2023-03-01T10:24:34;17.80;;;13.30;;
2854;SDS011;1435;49.472;10.940;2023-03-01T10:29:38;19.67;;;13.60;;
2854;SDS011;1435;49.472;10.940;2023-03-01T10:34:45;24.60;;;13.90;;
2854;SDS011;1435;49.472;10.940;2023-03-01T10:39:57;18.33;;;13.37;;
2854;SDS011;1435;49.472;10.940;2023-03-01T10:45:14;19.20;;;13.33;;
2854;SDS011;1435;49.472;10.940;2023-03-01T10:50:20;21.47;;;13.27;;
2854;SDS011;1435;49.472;10.940;2023-03-01T10:55:24;20.00;;;13.90;;
2854;SDS011;1435;49.472;10.940;2023-03-01T11:00:29;18.67;;;13.43;;
2854;SDS011;1435;49.472;10.940;2023-03-01T11:05:32;18.07;;;12.93;;
2854;SDS011;1435;49.472;10.940;2023-03-01T11:10:35;26.37;;;14.80;;
2854;SDS011;1435;49.472;10.940;2023-03-01T11:15:37;23.20;;;14.80;;
2854;SDS011;1435;49.472;10.940;2023-03-01T11:20:40;20.00;;;13.70;;
2854;SDS011;1435;49.472;10.940;2023-03-01T11:25:43;18.83;;;14.77;;
2854;SDS011;1435;49.472;10.940;2023-03-01T11:30:51;18.27;;;13.93;;
2854;SDS011;1435;49.472;10.940;2023-03-01T11:36:00;20.57;;;13.33;;
2854;SDS011;1435;49.472;10.940;2023-03-01T11:41:06;21.10;;;13.50;;
2854;SDS011;1435;49.472;10.940;2023-03-01T11:46:31;16.90;;;12.40;;
2854;SDS011;1435;49.472;10.940;2023-03-01T11:52:05;15.83;;;12.93;;
2854;SDS011;1435;49.472;10.940;2023-03-01T11:57:14;20.80;;;14.40;;
2854;SDS011;1435;49.472;10.940;2023-03-01T12:08:10;16.37;;;11.87;;
2854;SDS011;1435;49.472;10.940;2023-03-01T12:13:23;20.23;;;14.07;;
2854;SDS011;1435;49.472;10.940;2023-03-01T12:29:41;19.17;;;12.00;;
2854;SDS011;1435;49.472;10.940;2023-03-01T12:35:01;13.40;;;10.13;;
2854;SDS011;1435;49.472;10.940;2023-03-01T12:40:38;15.83;;;11.73;;
2854;SDS011;1435;49.472;10.940;2023-03-01T12:46:03;14.27;;;11.07;;
2854;SDS011;1435;49.472;10.940;2023-03-01T12:51:12;15.03;;;10.40;;
2854;SDS011;1435;49.472;10.940;2023-03-01T12:56:17;18.33;;;12.50;;
2854;SDS011;1435;49.472;10.940;2023-03-01T13:01:25;13.93;;;11.00;;
2854;SDS011;1435;49.472;10.940;2023-03-01T13:06:39;15.73;;;11.33;;
2854;SDS011;1435;49.472;10.940;2023-03-01T13:11:46;14.83;;;10.80;;
2854;SDS011;1435;49.472;10.940;2023-03-01T13:16:48;14.80;;;11.80;;
2854;SDS011;1435;49.472;10.940;2023-03-01T13:21:51;13.87;;;11.27;;
2854;SDS011;1435;49.472;10.940;2023-03-01T13:32:29;16.13;;;11.37;;
2854;SDS011;1435;49.472;10.940;2023-03-01T13:37:38;17.47;;;11.13;;
2854;SDS011;1435;49.472;10.940;2023-03-01T13:42:42;13.63;;;11.00;;
2854;SDS011;1435;49.472;10.940;2023-03-01T13:47:46;16.20;;;11.67;;
2854;SDS011;1435;49.472;10.940;2023-03-01T13:52:53;14.43;;;11.57;;
2854;SDS011;1435;49.472;10.940;2023-03-01T13:58:01;14.30;;;10.77;;
2854;SDS011;1435;49.472;10.940;2023-03-01T14:03:10;16.23;;;12.53;;
2854;SDS011;1435;49.472;10.940;2023-03-01T14:08:21;14.50;;;10.80;;
2854;SDS011;1435;49.472;10.940;2023-03-01T14:13:29;13.97;;;11.00;;
2854;SDS011;1435;49.472;10.940;2023-03-01T14:18:41;15.80;;;12.00;;
2854;SDS011;1435;49.472;10.940;2023-03-01T14:23:48;14.20;;;12.73;;
2854;SDS011;1435;49.472;10.940;2023-03-01T14:28:52;13.70;;;11.73;;
2854;SDS011;1435;49.472;10.940;2023-03-01T14:33:54;12.90;;;10.40;;
2854;SDS011;1435;49.472;10.940;2023-03-01T14:38:56;14.80;;;11.40;;
2854;SDS011;1435;49.472;10.940;2023-03-01T14:44:06;14.30;;;11.00;;
2854;SDS011;1435;49.472;10.940;2023-03-01T14:49:14;15.00;;;11.87;;
2854;SDS011;1435;49.472;10.940;2023-03-01T14:54:20;13.90;;;11.60;;
2854;SDS011;1435;49.472;10.940;2023-03-01T14:59:26;13.83;;;11.93;;
2854;SDS011;1435;49.472;10.940;2023-03-01T15:04:28;15.13;;;11.30;;
2854;SDS011;1435;49.472;10.940;2023-03-01T15:09:34;11.03;;;9.87;;
2854;SDS011;1435;49.472;10.940;2023-03-01T15:14:42;12.17;;;10.93;;
2854;SDS011;1435;49.472;10.940;2023-03-01T15:19:46;13.50;;;11.43;;
2854;SDS011;1435;49.472;10.940;2023-03-01T15:24:48;12.60;;;10.33;;
2854;SDS011;1435;49.472;10.940;2023-03-01T15:29:53;13.67;;;11.17;;
2854;SDS011;1435;49.472;10.940;2023-03-01T15:34:56;12.63;;;10.40;;
2854;SDS011;1435;49.472;10.940;2023-03-01T15:39:58;12.77;;;9.80;;
2854;SDS011;1435;49.472;10.940;2023-03-01T15:45:09;13.80;;;10.30;;
2854;SDS011;1435;49.472;10.940;2023-03-01T15:50:15;12.50;;;10.17;;
2854;SDS011;1435;49.472;10.940;2023-03-01T15:55:21;14.50;;;11.63;;
2854;SDS011;1435;49.472;10.940;2023-03-01T16:00:25;15.30;;;10.33;;
2854;SDS011;1435;49.472;10.940;2023-03-01T16:05:28;15.03;;;11.03;;
2854;SDS011;1435;49.472;10.940;2023-03-01T16:10:31;14.53;;;11.70;;
2854;SDS011;1435;49.472;10.940;2023-03-01T16:15:35;15.20;;;11.47;;
2854;SDS011;1435;49.472;10.940;2023-03-01T16:20:38;13.53;;;11.03;;
2854;SDS011;1435;49.472;10.940;2023-03-01T16:25:40;11.60;;;10.10;;
2854;SDS011;1435;49.472;10.940;2023-03-01T16:30:46;12.93;;;11.10;;
2854;SDS011;1435;49.472;10.940;2023-03-01T16:35:49;15.00;;;10.30;;
2854;SDS011;1435;49.472;10.940;2023-03-01T16:40:51;12.70;;;10.87;;
2854;SDS011;1435;49.472;10.940;2023-03-01T16:45:54;13.63;;;11.60;;
2854;SDS011;1435;49.472;10.940;2023-03-01T16:50:57;14.93;;;10.97;;
2854;SDS011;1435;49.472;10.940;2023-03-01T16:55:59;16.47;;;11.30;;
2854;SDS011;1435;49.472;10.940;2023-03-01T17:01:07;14.77;;;11.80;;
2854;SDS011;1435;49.472;10.940;2023-03-01T17:06:14;14.90;;;10.97;;
2854;SDS011;1435;49.472;10.940;2023-03-01T17:11:18;12.60;;;10.57;;
2854;SDS011;1435;49.472;10.940;2023-03-01T17:16:22;16.37;;;12.10;;
2854;SDS011;1435;49.472;10.940;2023-03-01T17:21:23;14.10;;;12.27;;
2854;SDS011;1435;49.472;10.940;2023-03-01T17:26:25;13.00;;;11.43;;
2854;SDS011;1435;49.472;10.940;2023-03-01T17:31:30;16.07;;;13.23;;
2854;SDS011;1435;49.472;10.940;2023-03-01T17:36:32;19.07;;;13.97;;
2854;SDS011;1435;49.472;10.940;2023-03-01T17:41:40;15.90;;;12.30;;
2854;SDS011;1435;49.472;10.940;2023-03-01T17:46:43;16.13;;;14.53;;
2854;SDS011;1435;49.472;10.940;2023-03-01T17:51:45;21.02;;;16.10;;
2854;SDS011;1435;49.472;10.940;2023-03-01T17:56:47;18.47;;;15.00;;
2854;SDS011;1435;49.472;10.940;2023-03-01T18:01:50;23.67;;;15.00;;
2854;SDS011;1435;49.472;10.940;2023-03-01T18:06:52;16.00;;;14.20;;
2854;SDS011;1435;49.472;10.940;2023-03-01T18:11:55;20.83;;;16.53;;
2854;SDS011;1435;49.472;10.940;2023-03-01T18:16:59;17.53;;;14.60;;
2854;SDS011;1435;49.472;10.940;2023-03-01T18:22:01;22.00;;;17.90;;
2854;SDS011;1435;49.472;10.940;2023-03-01T18:27:03;22.83;;;16.70;;
2854;SDS011;1435;49.472;10.940;2023-03-01T18:32:06;18.40;;;15.23;;
2854;SDS011;1435;49.472;10.940;2023-03-01T18:37:08;19.93;;;16.07;;
2854;SDS011;1435;49.472;10.940;2023-03-01T18:42:09;24.70;;;17.00;;
2854;SDS011;1435;49.472;10.940;2023-03-01T18:47:13;18.80;;;15.30;;
2854;SDS011;1435;49.472;10.940;2023-03-01T18:52:14;21.90;;;16.97;;
2854;SDS011;1435;49.472;10.940;2023-03-01T18:57:16;21.40;;;15.87;;
2854;SDS011;1435;49.472;10.940;2023-03-01T19:02:19;23.20;;;16.90;;
2854;SDS011;1435;49.472;10.940;2023-03-01T19:07:21;21.50;;;16.27;;
2854;SDS011;1435;49.472;10.940;2023-03-01T19:12:22;22.73;;;18.10;;
2854;SDS011;1435;49.472;10.940;2023-03-01T19:17:25;27.60;;;19.37;;
2854;SDS011;1435;49.472;10.940;2023-03-01T19:22:30;18.97;;;16.27;;
2854;SDS011;1435;49.472;10.940;2023-03-01T19:27:31;26.20;;;19.10;;
2854;SDS011;1435;49.472;10.940;2023-03-01T19:32:35;29.70;;;17.20;;
2854;SDS011;1435;49.472;10.940;2023-03-01T19:37:37;21.27;;;16.97;;
2854;SDS011;1435;49.472;10.940;2023-03-01T19:42:39;23.60;;;17.00;;
2854;SDS011;1435;49.472;10.940;2023-03-01T19:47:44;29.90;;;21.63;;
2854;SDS011;1435;49.472;10.940;2023-03-01T19:52:46;25.97;;;18.93;;
2854;SDS011;1435;49.472;10.940;2023-03-01T19:57:48;26.80;;;19.20;;
2854;SDS011;1435;49.472;10.940;2023-03-01T20:02:51;23.80;;;17.43;;
2854;SDS011;1435;49.472;10.940;2023-03-01T20:07:53;22.73;;;17.07;;
2854;SDS011;1435;49.472;10.940;2023-03-01T20:12:57;24.07;;;16.63;;
2854;SDS011;1435;49.472;10.940;2023-03-01T20:18:02;22.90;;;17.50;;
2854;SDS011;1435;49.472;10.940;2023-03-01T20:23:04;28.60;;;18.47;;
2854;SDS011;1435;49.472;10.940;2023-03-01T20:28:06;24.33;;;16.87;;
2854;SDS011;1435;49.472;10.940;2023-03-01T20:33:09;22.00;;;17.43;;
2854;SDS011;1435;49.472;10.940;2023-03-01T20:38:11;21.13;;;16.90;;
2854;SDS011;1435;49.472;10.940;2023-03-01T20:43:13;22.37;;;15.90;;
2854;SDS011;1435;49.472;10.940;2023-03-01T20:48:16;22.00;;;15.83;;
2854;SDS011;1435;49.472;10.940;2023-03-01T20:53:18;27.83;;;18.07;;
2854;SDS011;1435;49.472;10.940;2023-03-01T20:58:20;29.70;;;19.40;;
2854;SDS011;1435;49.472;10.940;2023-03-01T21:03:23;22.17;;;17.00;;
2854;SDS011;1435;49.472;10.940;2023-03-01T21:08:25;28.97;;;18.03;;
2854;SDS011;1435;49.472;10.940;2023-03-01T21:13:27;24.10;;;18.07;;
2854;SDS011;1435;49.472;10.940;2023-03-01T21:18:31;25.57;;;17.20;;
2854;SDS011;1435;49.472;10.940;2023-03-01T21:23:34;30.47;;;18.53;;
2854;SDS011;1435;49.472;10.940;2023-03-01T21:28:37;24.73;;;18.60;;
2854;SDS011;1435;49.472;10.940;2023-03-01T21:33:43;22.90;;;16.43;;
2854;SDS011;1435;49.472;10.940;2023-03-01T21:38:47;24.30;;;17.33;;
2854;SDS011;1435;49.472;10.940;2023-03-01T21:43:50;25.03;;;18.10;;
2854;SDS011;1435;49.472;10.940;2023-03-01T21:48:55;20.57;;;16.97;;
2854;SDS011;1435;49.472;10.940;2023-03-01T21:53:58;27.27;;;17.40;;
2854;SDS011;1435;49.472;10.940;2023-03-01T21:59:01;23.53;;;16.00;;
2854;SDS011;1435;49.472;10.940;2023-03-01T22:04:04;19.50;;;15.90;;
2854;SDS011;1435;49.472;10.940;2023-03-01T22:09:07;24.73;;;18.60;;
2854;SDS011;1435;49.472;10.940;2023-03-01T22:14:11;26.53;;;16.10;;
2854;SDS011;1435;49.472;10.940;2023-03-01T22:19:15;25.50;;;15.17;;
2854;SDS011;1435;49.472;10.940;2023-03-01T22:24:19;30.40;;;17.70;;
2854;SDS011;1435;49.472;10.940;2023-03-01T22:29:23;23.00;;;16.70;;
2854;SDS011;1435;49.472;10.940;2023-03-01T22:34:29;25.37;;;17.83;;
2854;SDS011;1435;49.472;10.940;2023-03-01T22:39:31;27.47;;;17.83;;
2854;SDS011;1435;49.472;10.940;2023-03-01T22:44:33;27.23;;;18.30;;
2854;SDS011;1435;49.472;10.940;2023-03-01T22:49:36;24.80;;;16.70;;
2854;SDS011;1435;49.472;10.940;2023-03-01T22:54:38;27.17;;;17.60;;
2854;SDS011;1435;49.472;10.940;2023-03-01T22:59:39;26.27;;;16.37;;
2854;SDS011;1435;49.472;10.940;2023-03-01T23:04:42;25.60;;;17.67;;
2854;SDS011;1435;49.472;10.940;2023-03-01T23:09:47;23.33;;;19.00;;
2854;SDS011;1435;49.472;10.940;2023-03-01T23:14:49;24.57;;;17.07;;
2854;SDS011;1435;49.472;10.940;2023-03-01T23:19:52;28.40;;;17.67;;
2854;SDS011;1435;49.472;10.940;2023-03-01T23:24:53;26.07;;;17.37;;
2854;SDS011;1435;49.472;10.940;2023-03-01T23:29:55;24.50;;;16.93;;
2854;SDS011;1435;49.472;10.940;2023-03-01T23:34:58;27.97;;;17.53;;
2854;SDS011;1435;49.472;10.940;2023-03-01T23:40:00;22.83;;;16.50;;
2854;SDS011;1435;49.472;10.940;2023-03-01T23:45:05;22.30;;;15.23;;
2854;SDS011;1435;49.472;10.940;2023-03-01T23:50:09;22.00;;;15.93;;
2854;SDS011;1435;49.472;10.940;2023-03-01T23:55:11;21.73;;;15.97;;
